createdAt,value
2023-05-08T00:00:40.746Z,7.18
2023-05-08T00:03:09.869Z,8.30
2023-05-08T00:05:38.570Z,9.65
2023-05-08T00:08:06.638Z,10.15
2023-05-08T00:10:35.265Z,10.13
2023-05-08T00:13:02.676Z,10.15
2023-05-08T00:15:31.710Z,8.70
2023-05-08T00:18:00.324Z,9.50
2023-05-08T00:20:28.677Z,9.02
2023-05-08T00:22:58.134Z,9.00
2023-05-08T00:25:25.781Z,8.18
2023-05-08T00:27:53.902Z,8.88
2023-05-08T00:30:21.895Z,8.38
2023-05-08T00:32:51.319Z,10.70
2023-05-08T00:35:20.325Z,9.50
2023-05-08T00:37:48.067Z,9.63
2023-05-08T00:40:16.244Z,10.88
2023-05-08T00:42:44.096Z,10.10
2023-05-08T00:45:11.605Z,9.95
2023-05-08T00:47:39.417Z,10.70
2023-05-08T00:50:07.933Z,9.68
2023-05-08T00:52:37.799Z,10.50
2023-05-08T00:55:06.135Z,10.23
2023-05-08T00:57:39.535Z,10.60
2023-05-08T01:00:09.603Z,11.30
2023-05-08T01:02:38.629Z,11.10
2023-05-08T01:05:07.945Z,10.95
2023-05-08T01:07:36.009Z,12.43
2023-05-08T01:10:03.488Z,11.65
2023-05-08T01:12:49.924Z,11.80
2023-05-08T01:15:20.501Z,11.60
2023-05-08T01:18:27.997Z,14.60
2023-05-08T01:21:05.300Z,13.45
2023-05-08T01:23:39.841Z,13.10
2023-05-08T01:26:08.940Z,13.43
2023-05-08T01:28:51.219Z,12.68
2023-05-08T01:31:19.009Z,13.32
2023-05-08T01:33:50.067Z,14.43
2023-05-08T01:36:49.938Z,13.85
2023-05-08T01:39:23.056Z,13.93
2023-05-08T01:41:58.094Z,14.35
2023-05-08T01:44:29.267Z,15.43
2023-05-08T01:46:57.724Z,14.15
2023-05-08T01:49:27.358Z,13.23
2023-05-08T01:51:58.631Z,14.68
2023-05-08T01:54:28.297Z,15.20
2023-05-08T01:56:57.791Z,18.90
2023-05-08T01:59:26.473Z,14.77
2023-05-08T02:01:55.366Z,17.00
2023-05-08T02:04:23.549Z,16.13
2023-05-08T02:06:54.690Z,19.60
2023-05-08T02:09:25.238Z,17.23
2023-05-08T02:11:55.306Z,21.80
2023-05-08T02:14:24.559Z,15.52
2023-05-08T02:16:53.559Z,17.48
2023-05-08T02:19:23.556Z,17.80
2023-05-08T02:21:51.779Z,17.38
2023-05-08T02:24:20.864Z,22.50
2023-05-08T02:26:49.743Z,57.88
2023-05-08T02:29:18.148Z,41.50
2023-05-08T02:31:49.177Z,18.20
2023-05-08T02:34:17.082Z,17.92
2023-05-08T02:36:44.778Z,23.07
2023-05-08T02:39:13.915Z,32.60
2023-05-08T02:41:42.636Z,17.42
2023-05-08T02:44:11.010Z,18.88
2023-05-08T02:46:55.092Z,19.98
2023-05-08T02:49:33.457Z,21.45
2023-05-08T02:52:13.041Z,20.05
2023-05-08T02:54:58.848Z,19.50
2023-05-08T02:58:00.493Z,18.65
2023-05-08T03:00:34.224Z,17.45
2023-05-08T03:03:08.244Z,22.02
2023-05-08T03:05:38.981Z,19.30
2023-05-08T03:08:11.897Z,16.50
2023-05-08T03:10:43.337Z,18.37
2023-05-08T03:13:12.461Z,17.50
2023-05-08T03:15:42.901Z,15.63
2023-05-08T03:18:14.084Z,17.65
2023-05-08T03:20:44.538Z,16.07
2023-05-08T03:23:13.635Z,26.20
2023-05-08T03:25:44.307Z,19.00
2023-05-08T03:28:12.809Z,20.27
2023-05-08T03:30:44.569Z,17.55
2023-05-08T03:33:14.866Z,19.52
2023-05-08T03:35:43.545Z,18.90
2023-05-08T03:38:13.308Z,18.08
2023-05-08T03:40:45.495Z,29.63
2023-05-08T03:43:13.952Z,37.60
2023-05-08T03:45:42.242Z,32.35
2023-05-08T03:48:11.250Z,22.20
2023-05-08T03:50:39.255Z,41.03
2023-05-08T03:53:06.779Z,17.83
2023-05-08T03:55:34.520Z,17.38
2023-05-08T03:58:12.296Z,17.70
2023-05-08T04:00:46.170Z,21.10
2023-05-08T04:03:19.795Z,16.67
2023-05-08T04:05:53.034Z,16.70
2023-05-08T04:08:26.673Z,16.45
2023-05-08T04:11:05.247Z,15.43
2023-05-08T04:13:34.227Z,31.58
2023-05-08T04:16:12.400Z,16.85
2023-05-08T04:18:46.436Z,15.80
2023-05-08T04:21:17.327Z,17.33
2023-05-08T04:23:45.068Z,14.85
2023-05-08T04:26:15.165Z,17.63
2023-05-08T04:28:43.980Z,17.80
2023-05-08T04:31:13.930Z,14.50
2023-05-08T04:33:42.162Z,14.80
2023-05-08T04:36:13.261Z,13.82
2023-05-08T04:38:41.891Z,19.40
2023-05-08T04:41:09.371Z,19.02
2023-05-08T04:43:37.068Z,14.65
2023-05-08T04:46:05.441Z,13.27
2023-05-08T04:48:34.188Z,15.45
2023-05-08T04:51:01.588Z,15.93
2023-05-08T04:53:30.167Z,16.38
2023-05-08T04:55:58.833Z,16.75
2023-05-08T04:58:26.518Z,15.93
2023-05-08T05:00:53.871Z,16.25
2023-05-08T05:03:21.466Z,17.15
2023-05-08T05:05:50.438Z,15.57
2023-05-08T05:08:18.499Z,15.02
2023-05-08T05:10:45.809Z,13.90
2023-05-08T05:13:13.283Z,15.63
2023-05-08T05:15:43.257Z,14.43
2023-05-08T05:18:10.803Z,13.40
2023-05-08T05:20:38.458Z,14.55
2023-05-08T05:23:06.912Z,13.68
2023-05-08T05:25:35.449Z,15.48
2023-05-08T05:28:02.960Z,12.18
2023-05-08T05:30:30.204Z,12.05
2023-05-08T05:32:58.038Z,11.93
2023-05-08T05:35:27.728Z,11.85
2023-05-08T05:37:55.421Z,11.68
2023-05-08T05:40:23.929Z,10.60
2023-05-08T05:42:51.453Z,12.52
2023-05-08T05:45:18.871Z,11.13
2023-05-08T05:47:51.711Z,13.23
2023-05-08T05:50:19.175Z,11.52
2023-05-08T05:52:46.543Z,11.43
2023-05-08T05:55:14.329Z,9.43
2023-05-08T05:57:42.256Z,12.82
2023-05-08T06:00:09.686Z,11.57
2023-05-08T06:02:37.799Z,11.65
2023-05-08T06:05:05.795Z,12.13
2023-05-08T06:07:33.694Z,12.63
2023-05-08T06:10:01.178Z,11.13
2023-05-08T06:12:29.527Z,11.35
2023-05-08T06:14:58.233Z,13.07
2023-05-08T06:17:26.683Z,14.13
2023-05-08T06:19:57.549Z,11.27
2023-05-08T06:22:26.856Z,11.02
2023-05-08T06:24:54.213Z,11.27
2023-05-08T06:27:22.378Z,11.82
2023-05-08T06:29:53.454Z,13.73
2023-05-08T06:32:24.066Z,17.67
2023-05-08T06:34:51.403Z,13.77
2023-05-08T06:37:19.085Z,17.98
2023-05-08T06:39:47.764Z,18.17
2023-05-08T06:42:16.498Z,16.83
2023-05-08T06:44:43.854Z,18.90
2023-05-08T06:47:11.264Z,19.25
2023-05-08T06:49:38.948Z,19.60
2023-05-08T06:52:07.103Z,17.10
2023-05-08T06:54:34.559Z,16.48
2023-05-08T06:57:01.888Z,20.58
2023-05-08T06:59:29.199Z,21.60
2023-05-08T07:01:56.612Z,32.15
2023-05-08T07:04:24.494Z,20.95
2023-05-08T07:06:53.384Z,25.17
2023-05-08T07:09:22.311Z,26.75
2023-05-08T07:11:49.890Z,32.72
2023-05-08T07:14:18.436Z,30.08
2023-05-08T07:16:45.758Z,32.47
2023-05-08T07:19:13.247Z,31.15
2023-05-08T07:21:40.633Z,28.30
2023-05-08T07:24:13.551Z,32.25
2023-05-08T07:26:41.933Z,25.42
2023-05-08T07:29:09.381Z,23.75
2023-05-08T07:31:40.801Z,25.63
2023-05-08T07:34:08.149Z,23.40
2023-05-08T07:36:35.460Z,20.90
2023-05-08T07:39:02.705Z,29.55
2023-05-08T07:41:30.206Z,22.50
2023-05-08T07:43:57.852Z,23.58
2023-05-08T07:46:25.586Z,22.42
2023-05-08T07:48:52.926Z,21.42
2023-05-08T07:51:22.464Z,16.27
2023-05-08T07:53:51.669Z,16.50
2023-05-08T07:56:19.082Z,14.93
2023-05-08T07:58:47.898Z,13.50
2023-05-08T08:01:18.117Z,14.10
2023-05-08T08:03:48.915Z,14.27
2023-05-08T08:06:17.175Z,15.57
2023-05-08T08:08:44.592Z,18.15
2023-05-08T08:11:11.904Z,19.15
2023-05-08T08:13:39.300Z,17.33
2023-05-08T08:16:07.096Z,19.85
2023-05-08T08:18:37.612Z,18.33
2023-05-08T08:21:08.484Z,17.58
2023-05-08T08:23:35.848Z,17.50
2023-05-08T08:26:08.962Z,16.92
2023-05-08T08:28:36.496Z,17.38
2023-05-08T08:31:04.187Z,19.63
2023-05-08T08:33:31.576Z,16.55
2023-05-08T08:35:59.171Z,15.98
2023-05-08T08:38:26.740Z,14.00
2023-05-08T08:40:54.617Z,12.73
2023-05-08T08:43:21.955Z,16.27
2023-05-08T08:45:49.298Z,13.35
2023-05-08T08:48:16.985Z,13.25
2023-05-08T08:50:46.846Z,13.80
2023-05-08T08:53:22.803Z,14.80
2023-05-08T08:55:52.616Z,18.33
2023-05-08T08:58:26.512Z,17.92
2023-05-08T09:00:56.221Z,21.67
2023-05-08T09:03:23.667Z,21.92
2023-05-08T09:05:51.919Z,20.85
2023-05-08T09:08:19.704Z,19.40
2023-05-08T09:10:47.392Z,21.77
2023-05-08T09:13:16.593Z,18.92
2023-05-08T09:15:44.992Z,17.60
2023-05-08T09:18:12.313Z,14.93
2023-05-08T09:20:41.411Z,14.75
2023-05-08T09:23:08.793Z,14.27
2023-05-08T09:25:46.063Z,13.85
2023-05-08T09:28:19.336Z,13.02
2023-05-08T09:31:05.651Z,13.50
2023-05-08T09:33:35.205Z,12.00
2023-05-08T09:36:02.696Z,12.27
2023-05-08T09:38:40.636Z,12.30
2023-05-08T09:41:15.850Z,12.57
2023-05-08T09:43:46.392Z,11.70
2023-05-08T09:46:22.195Z,12.27
2023-05-08T09:48:53.775Z,11.55
2023-05-08T09:51:21.749Z,12.07
2023-05-08T09:53:52.395Z,11.43
2023-05-08T09:56:35.213Z,10.27
2023-05-08T09:59:22.383Z,8.80
2023-05-08T10:01:51.458Z,9.10
2023-05-08T10:04:19.872Z,9.80
2023-05-08T10:06:58.313Z,9.90
2023-05-08T10:09:28.890Z,9.23
2023-05-08T10:12:03.718Z,9.35
2023-05-08T10:14:32.279Z,9.25
2023-05-08T10:17:03.027Z,9.70
2023-05-08T10:19:31.746Z,9.93
2023-05-08T10:22:02.264Z,9.77
2023-05-08T10:24:33.660Z,9.13
2023-05-08T10:27:22.461Z,7.97
2023-05-08T10:29:58.319Z,9.57
2023-05-08T10:32:27.068Z,8.80
2023-05-08T10:34:56.018Z,9.75
2023-05-08T10:37:24.752Z,10.05
2023-05-08T10:39:52.993Z,10.23
2023-05-08T10:42:20.956Z,10.02
2023-05-08T10:44:49.361Z,10.45
2023-05-08T10:47:20.755Z,10.88
2023-05-08T10:50:03.891Z,15.57
2023-05-08T10:52:45.358Z,11.65
2023-05-08T10:55:19.227Z,12.15
2023-05-08T10:58:07.846Z,13.82
2023-05-08T11:00:55.290Z,12.50
2023-05-08T11:03:31.941Z,12.68
2023-05-08T11:06:02.131Z,13.07
2023-05-08T11:08:30.951Z,12.95
2023-05-08T11:11:03.505Z,15.15
2023-05-08T11:13:34.604Z,14.82
2023-05-08T11:16:03.298Z,14.43
2023-05-08T11:18:45.642Z,14.57
2023-05-08T11:21:26.026Z,15.68
2023-05-08T11:23:59.563Z,15.93
2023-05-08T11:26:43.014Z,14.93
2023-05-08T11:29:19.924Z,15.27
2023-05-08T11:31:52.900Z,13.48
2023-05-08T11:34:39.390Z,14.90
2023-05-08T11:37:10.254Z,14.05
2023-05-08T11:39:38.935Z,13.80
2023-05-08T11:42:25.211Z,12.63
2023-05-08T11:45:09.487Z,13.98
2023-05-08T11:47:42.568Z,14.63
2023-05-08T11:50:11.307Z,13.00
2023-05-08T11:52:41.667Z,14.50
2023-05-08T11:55:10.874Z,14.05
2023-05-08T11:57:39.185Z,12.85
2023-05-08T12:00:10.367Z,12.60
2023-05-08T12:02:39.063Z,12.50
2023-05-08T12:05:08.292Z,12.10
2023-05-08T12:07:48.740Z,12.48
2023-05-08T12:10:17.286Z,9.85
2023-05-08T12:12:46.934Z,10.32
2023-05-08T12:15:16.477Z,10.65
2023-05-08T12:17:45.195Z,10.02
2023-05-08T12:20:19.244Z,10.40
2023-05-08T12:23:05.453Z,9.93
2023-05-08T12:25:36.111Z,10.32
2023-05-08T12:28:04.465Z,10.13
2023-05-08T12:30:37.888Z,10.40
2023-05-08T12:33:06.572Z,9.45
2023-05-08T12:35:35.628Z,9.00
2023-05-08T12:38:06.408Z,7.93
2023-05-08T12:40:35.499Z,10.55
2023-05-08T12:43:06.202Z,8.77
2023-05-08T12:45:39.466Z,6.18
2023-05-08T12:48:08.038Z,6.50
2023-05-08T12:50:39.203Z,6.25
2023-05-08T12:53:09.808Z,5.68
2023-05-08T12:55:38.080Z,5.43
2023-05-08T12:58:06.868Z,4.57
2023-05-08T13:00:37.785Z,5.90
2023-05-08T13:03:06.536Z,5.75
2023-05-08T13:05:37.163Z,6.57
2023-05-08T13:08:11.924Z,4.80
2023-05-08T13:10:52.032Z,7.93
2023-05-08T13:13:20.901Z,5.47
2023-05-08T13:15:49.741Z,5.85
2023-05-08T13:18:18.479Z,5.13
2023-05-08T13:20:47.488Z,3.83
2023-05-08T13:23:15.055Z,4.18
2023-05-08T13:25:42.784Z,4.82
2023-05-08T13:28:11.279Z,5.88
2023-05-08T13:30:40.366Z,5.82
2023-05-08T13:33:08.300Z,5.45
2023-05-08T13:35:36.905Z,6.63
2023-05-08T13:38:05.426Z,6.25
2023-05-08T13:40:34.616Z,6.07
2023-05-08T13:43:03.128Z,6.97
2023-05-08T13:45:30.942Z,7.68
2023-05-08T13:47:59.569Z,6.35
2023-05-08T13:50:28.022Z,6.63
2023-05-08T13:52:56.242Z,5.60
2023-05-08T13:55:24.794Z,4.53
2023-05-08T13:57:53.240Z,6.00
2023-05-08T14:00:21.691Z,7.10
2023-05-08T14:02:52.962Z,7.57
2023-05-08T14:05:21.365Z,7.63
2023-05-08T14:07:49.584Z,8.05
2023-05-08T14:10:18.769Z,9.00
2023-05-08T14:12:46.820Z,8.15
2023-05-08T14:15:15.642Z,8.98
2023-05-08T14:17:43.536Z,8.80
2023-05-08T14:20:12.293Z,9.02
2023-05-08T14:22:40.698Z,8.30
2023-05-08T14:25:09.325Z,8.05
2023-05-08T14:27:37.639Z,9.45
2023-05-08T14:30:05.911Z,8.10
2023-05-08T14:32:35.017Z,6.88
2023-05-08T14:35:03.232Z,7.70
2023-05-08T14:37:31.613Z,7.65
2023-05-08T14:39:59.888Z,8.15
2023-05-08T14:42:27.550Z,7.80
2023-05-08T14:44:56.142Z,7.15
2023-05-08T14:47:23.766Z,7.78
2023-05-08T14:49:51.614Z,8.85
2023-05-08T14:52:19.278Z,9.00
2023-05-08T14:54:53.941Z,9.30
2023-05-08T14:57:21.626Z,8.32
2023-05-08T15:02:37.383Z,9.48
2023-05-08T15:05:16.991Z,10.00
2023-05-08T15:07:47.298Z,10.88
2023-05-08T15:10:14.747Z,9.63
2023-05-08T15:12:42.345Z,9.38
2023-05-08T15:15:09.977Z,11.75
2023-05-08T15:17:37.339Z,10.88
2023-05-08T15:20:07.020Z,10.23
2023-05-08T15:22:34.753Z,10.98
2023-05-08T15:25:02.813Z,10.40
2023-05-08T15:27:31.792Z,10.70
2023-05-08T15:30:00.348Z,12.90
2023-05-08T15:32:28.938Z,12.10
2023-05-08T15:34:57.377Z,13.27
2023-05-08T15:37:25.951Z,11.32
2023-05-08T15:39:53.974Z,15.35
2023-05-08T15:42:22.702Z,14.57
2023-05-08T15:44:55.152Z,13.88
2023-05-08T15:47:23.650Z,15.85
2023-05-08T15:49:53.135Z,21.75
2023-05-08T15:52:24.109Z,24.48
2023-05-08T15:54:52.809Z,16.77
2023-05-08T15:57:21.146Z,14.23
2023-05-08T15:59:49.879Z,17.73
2023-05-08T16:02:18.192Z,17.73
2023-05-08T16:04:46.629Z,17.02
2023-05-08T16:07:15.140Z,16.83
2023-05-08T16:09:43.864Z,16.77
2023-05-08T16:12:12.143Z,18.33
2023-05-08T16:14:40.547Z,18.83
2023-05-08T16:17:09.156Z,18.05
2023-05-08T16:19:39.945Z,19.70
2023-05-08T16:22:08.647Z,17.95
2023-05-08T16:24:37.237Z,20.60
2023-05-08T16:27:05.745Z,19.48
2023-05-08T16:29:36.363Z,19.77
2023-05-08T16:32:05.145Z,19.90
2023-05-08T16:34:33.778Z,20.92
2023-05-08T16:37:01.963Z,20.00
2023-05-08T16:39:30.447Z,17.52
2023-05-08T16:41:59.004Z,15.77
2023-05-08T16:44:27.492Z,15.43
2023-05-08T16:46:56.004Z,16.02
2023-05-08T16:49:24.254Z,16.35
2023-05-08T16:51:52.893Z,15.93
2023-05-08T16:54:21.623Z,17.15
2023-05-08T16:56:50.219Z,15.75
2023-05-08T16:59:18.784Z,15.32
2023-05-08T17:01:46.924Z,15.63
2023-05-08T17:04:15.302Z,15.43
2023-05-08T17:06:43.752Z,14.75
2023-05-08T17:09:12.291Z,15.77
2023-05-08T17:11:40.857Z,15.52
2023-05-08T17:14:09.371Z,15.85
2023-05-08T17:16:38.335Z,15.77
2023-05-08T17:19:06.393Z,18.20
2023-05-08T17:21:36.146Z,18.67
2023-05-08T17:24:04.061Z,15.60
2023-05-08T17:26:34.068Z,15.30
2023-05-08T17:29:02.747Z,16.42
2023-05-08T17:31:31.106Z,16.42
2023-05-08T17:33:59.798Z,17.15
2023-05-08T17:36:28.290Z,16.13
2023-05-08T17:38:56.461Z,18.08
2023-05-08T17:41:25.108Z,14.45
2023-05-08T17:43:54.298Z,14.93
2023-05-08T17:46:22.316Z,16.17
2023-05-08T17:48:51.399Z,17.23
2023-05-08T17:51:19.265Z,17.48
2023-05-08T17:53:47.444Z,15.90
2023-05-08T17:56:16.391Z,15.95
2023-05-08T17:58:52.400Z,21.40
2023-05-08T18:01:21.028Z,19.23
2023-05-08T18:03:49.133Z,17.13
2023-05-08T18:06:17.580Z,19.40
2023-05-08T18:08:45.936Z,17.63
2023-05-08T18:11:32.472Z,17.88
2023-05-08T18:14:00.975Z,18.27
2023-05-08T18:16:29.616Z,18.55
2023-05-08T18:18:57.880Z,18.60
2023-05-08T18:21:26.731Z,17.55
2023-05-08T18:23:54.896Z,18.10
2023-05-08T18:26:23.234Z,19.38
2023-05-08T18:28:52.099Z,18.70
2023-05-08T18:31:20.139Z,19.92
2023-05-08T18:33:48.721Z,23.05
2023-05-08T18:36:17.363Z,19.73
2023-05-08T18:38:45.836Z,22.23
2023-05-08T18:41:14.182Z,20.73
2023-05-08T18:43:42.782Z,22.60
2023-05-08T18:46:13.526Z,23.10
2023-05-08T18:48:44.912Z,23.40
2023-05-08T18:51:13.433Z,23.55
2023-05-08T18:53:41.809Z,23.00
2023-05-08T18:56:09.465Z,24.00
2023-05-08T18:58:37.100Z,24.60
2023-05-08T19:01:06.366Z,22.45
2023-05-08T19:03:33.814Z,25.50
2023-05-08T19:06:01.260Z,23.75
2023-05-08T19:08:30.079Z,24.25
2023-05-08T19:10:58.583Z,25.35
2023-05-08T19:13:27.665Z,34.50
2023-05-08T19:15:55.374Z,31.15
2023-05-08T19:18:26.585Z,28.48
2023-05-08T19:20:55.013Z,26.63
2023-05-08T19:23:23.507Z,26.65
2023-05-08T19:25:53.171Z,28.67
2023-05-08T19:28:20.461Z,26.70
2023-05-08T19:30:49.030Z,27.23
2023-05-08T19:33:20.673Z,30.15
2023-05-08T19:35:48.366Z,30.00
2023-05-08T19:38:16.022Z,28.85
2023-05-08T19:40:55.359Z,30.65
2023-05-08T19:43:24.193Z,26.77
2023-05-08T19:45:51.856Z,28.98
2023-05-08T19:48:20.220Z,29.17
2023-05-08T19:50:47.861Z,28.50
2023-05-08T19:53:15.190Z,28.88
2023-05-08T19:55:43.058Z,27.75
2023-05-08T19:58:10.451Z,33.53
2023-05-08T20:00:38.273Z,33.47
2023-05-08T20:03:05.784Z,30.92
2023-05-08T20:05:33.294Z,29.70
2023-05-08T20:08:00.702Z,29.13
2023-05-08T20:10:28.039Z,32.00
2023-05-08T20:12:55.358Z,33.05
2023-05-08T20:15:23.012Z,32.70
2023-05-08T20:17:50.361Z,33.38
2023-05-08T20:20:18.084Z,33.45
2023-05-08T20:22:45.424Z,33.70
2023-05-08T20:25:12.906Z,36.28
2023-05-08T20:27:41.565Z,34.70
2023-05-08T20:30:09.874Z,32.78
2023-05-08T20:32:38.566Z,34.55
2023-05-08T20:35:06.655Z,31.75
2023-05-08T20:37:34.635Z,33.67
2023-05-08T20:40:05.247Z,37.10
2023-05-08T20:42:32.692Z,35.63
2023-05-08T20:45:01.038Z,34.45
2023-05-08T20:47:29.916Z,35.45
2023-05-08T20:49:57.722Z,34.63
2023-05-08T20:52:26.012Z,36.30
2023-05-08T20:54:53.680Z,39.08
2023-05-08T20:57:21.373Z,33.75
2023-05-08T20:59:48.998Z,38.00
2023-05-08T21:02:17.622Z,38.22
2023-05-08T21:04:46.348Z,35.88
2023-05-08T21:07:14.649Z,31.85
2023-05-08T21:09:43.218Z,31.15
2023-05-08T21:12:11.746Z,32.25
2023-05-08T21:14:39.855Z,33.55
2023-05-08T21:17:08.722Z,32.75
2023-05-08T21:19:38.471Z,34.42
2023-05-08T21:22:08.377Z,33.58
2023-05-08T21:24:37.434Z,35.80
2023-05-08T21:27:05.587Z,36.00
2023-05-08T21:29:33.102Z,38.95
2023-05-08T21:32:00.548Z,36.60
2023-05-08T21:34:28.171Z,38.70
2023-05-08T21:36:55.684Z,36.65
2023-05-08T21:39:23.792Z,38.88
2023-05-08T21:41:51.275Z,36.70
2023-05-08T21:44:18.972Z,37.22
2023-05-08T21:46:47.581Z,37.25
2023-05-08T21:49:16.259Z,33.97
2023-05-08T21:51:45.645Z,35.42
2023-05-08T21:54:12.899Z,37.35
2023-05-08T21:56:40.419Z,38.53
2023-05-08T21:59:09.935Z,37.30
2023-05-08T22:01:37.518Z,44.10
2023-05-08T22:04:04.959Z,38.92
2023-05-08T22:06:33.124Z,38.85
2023-05-08T22:09:00.406Z,36.65
2023-05-08T22:11:27.771Z,37.95
2023-05-08T22:13:55.863Z,38.90
2023-05-08T22:16:24.244Z,36.63
2023-05-08T22:18:52.452Z,35.33
2023-05-08T22:21:21.370Z,34.45
2023-05-08T22:23:49.831Z,33.28
2023-05-08T22:26:18.801Z,31.45
2023-05-08T22:28:46.436Z,32.20
2023-05-08T22:31:14.474Z,31.58
2023-05-08T22:33:43.615Z,32.38
2023-05-08T22:36:12.310Z,38.47
2023-05-08T22:38:43.295Z,34.85
2023-05-08T22:41:11.639Z,32.75
2023-05-08T22:43:40.719Z,34.97
2023-05-08T22:46:08.506Z,33.00
2023-05-08T22:48:37.058Z,33.83
2023-05-08T22:51:05.510Z,32.05
2023-05-08T22:53:34.202Z,29.80
2023-05-08T22:56:02.523Z,33.40
2023-05-08T22:58:31.201Z,32.95
2023-05-08T23:00:59.862Z,35.08
2023-05-08T23:03:27.832Z,33.95
2023-05-08T23:05:56.521Z,36.17
2023-05-08T23:08:26.190Z,36.92
2023-05-08T23:10:53.847Z,35.88
2023-05-08T23:13:22.286Z,35.90
2023-05-08T23:15:50.063Z,38.90
2023-05-08T23:18:18.864Z,37.63
2023-05-08T23:20:47.518Z,40.67
2023-05-08T23:23:16.010Z,41.65
2023-05-08T23:25:44.299Z,43.08
2023-05-08T23:28:13.056Z,41.88
2023-05-08T23:30:41.264Z,43.05
2023-05-08T23:33:10.448Z,44.05
2023-05-08T23:35:38.105Z,42.58
2023-05-08T23:38:07.056Z,39.42
2023-05-08T23:40:35.539Z,46.55
2023-05-08T23:43:04.448Z,45.10
2023-05-08T23:45:32.215Z,42.42
2023-05-08T23:48:00.635Z,41.08
2023-05-08T23:50:29.344Z,42.20
2023-05-08T23:52:57.442Z,47.80
2023-05-08T23:55:26.424Z,44.10
2023-05-08T23:57:56.076Z,43.92
